sensor_id;sensor_type;location;lat;lon;timestamp;pressure;altitude;pressure_sealevel;temperature;humidity
15670;BME280;18524;45.190;5.732;2024-01-15T00:01:44;98561.31;;;5.52;100.00
15670;BME280;18524;45.190;5.732;2024-01-15T00:06:35;98562.56;;;5.47;100.00
15670;BME280;18524;45.190;5.732;2024-01-15T00:11:25;98559.53;;;5.53;100.00
15670;BME280;18524;45.190;5.732;2024-01-15T00:16:15;98551.34;;;5.46;100.00
15670;BME280;18524;45.190;5.732;2024-01-15T00:21:06;98546.69;;;5.26;100.00
15670;BME280;18524;45.190;5.732;2024-01-15T00:25:56;98552.09;;;5.36;100.00
15670;BME280;18524;45.190;5.732;2024-01-15T00:30:47;98548.25;;;5.28;100.00
15670;BME280;18524;45.190;5.732;2024-01-15T00:35:37;98542.28;;;5.52;100.00
15670;BME280;18524;45.190;5.732;2024-01-15T00:40:28;98551.75;;;5.65;100.00
15670;BME280;18524;45.190;5.732;2024-01-15T00:45:18;98537.63;;;5.81;100.00
15670;BME280;18524;45.190;5.732;2024-01-15T00:50:09;98516.94;;;5.79;100.00
15670;BME280;18524;45.190;5.732;2024-01-15T00:54:59;98515.75;;;5.59;100.00
15670;BME280;18524;45.190;5.732;2024-01-15T00:59:49;98515.44;;;5.64;100.00
15670;BME280;18524;45.190;5.732;2024-01-15T01:04:40;98518.25;;;5.85;100.00
15670;BME280;18524;45.190;5.732;2024-01-15T01:09:30;98529.63;;;5.97;100.00
15670;BME280;18524;45.190;5.732;2024-01-15T01:14:21;98521.47;;;5.88;100.00
15670;BME280;18524;45.190;5.732;2024-01-15T01:19:12;98525.13;;;5.62;100.00
15670;BME280;18524;45.190;5.732;2024-01-15T01:24:02;98520.22;;;5.57;100.00
15670;BME280;18524;45.190;5.732;2024-01-15T01:28:53;98528.56;;;5.86;100.00
15670;BME280;18524;45.190;5.732;2024-01-15T01:33:43;98525.13;;;5.86;100.00
15670;BME280;18524;45.190;5.732;2024-01-15T01:38:33;98530.34;;;5.86;100.00
15670;BME280;18524;45.190;5.732;2024-01-15T01:43:24;98532.00;;;5.87;100.00
15670;BME280;18524;45.190;5.732;2024-01-15T01:48:14;98533.16;;;5.83;100.00
15670;BME280;18524;45.190;5.732;2024-01-15T01:53:05;98540.34;;;5.79;100.00
15670;BME280;18524;45.190;5.732;2024-01-15T01:57:56;98532.94;;;5.86;100.00
15670;BME280;18524;45.190;5.732;2024-01-15T02:02:46;98531.41;;;5.96;100.00
15670;BME280;18524;45.190;5.732;2024-01-15T02:07:37;98548.13;;;5.43;100.00
15670;BME280;18524;45.190;5.732;2024-01-15T02:12:27;98555.91;;;5.17;100.00
15670;BME280;18524;45.190;5.732;2024-01-15T02:17:18;98555.69;;;5.46;100.00
15670;BME280;18524;45.190;5.732;2024-01-15T02:22:09;98558.94;;;5.62;100.00
15670;BME280;18524;45.190;5.732;2024-01-15T02:26:59;98552.28;;;5.32;100.00
15670;BME280;18524;45.190;5.732;2024-01-15T02:31:49;98558.22;;;5.22;100.00
15670;BME280;18524;45.190;5.732;2024-01-15T02:36:40;98557.19;;;5.24;100.00
15670;BME280;18524;45.190;5.732;2024-01-15T02:41:30;98559.88;;;5.36;100.00
15670;BME280;18524;45.190;5.732;2024-01-15T02:46:21;98547.09;;;5.32;100.00
15670;BME280;18524;45.190;5.732;2024-01-15T02:51:11;98544.59;;;5.44;100.00
15670;BME280;18524;45.190;5.732;2024-01-15T02:56:01;98545.53;;;5.43;100.00
15670;BME280;18524;45.190;5.732;2024-01-15T03:00:52;98523.78;;;5.44;100.00
15670;BME280;18524;45.190;5.732;2024-01-15T03:05:42;98511.72;;;5.43;100.00
15670;BME280;18524;45.190;5.732;2024-01-15T03:10:33;98510.81;;;5.18;100.00
15670;BME280;18524;45.190;5.732;2024-01-15T03:15:23;98519.03;;;5.25;100.00
15670;BME280;18524;45.190;5.732;2024-01-15T03:20:13;98523.63;;;4.96;100.00
15670;BME280;18524;45.190;5.732;2024-01-15T03:25:04;98531.06;;;5.13;100.00
15670;BME280;18524;45.190;5.732;2024-01-15T03:29:55;98535.03;;;5.19;100.00
15670;BME280;18524;45.190;5.732;2024-01-15T03:34:45;98524.94;;;5.14;100.00
15670;BME280;18524;45.190;5.732;2024-01-15T03:39:37;98521.63;;;5.12;100.00
15670;BME280;18524;45.190;5.732;2024-01-15T03:44:27;98520.91;;;5.10;100.00
15670;BME280;18524;45.190;5.732;2024-01-15T03:49:18;98511.66;;;5.06;100.00
15670;BME280;18524;45.190;5.732;2024-01-15T03:54:08;98508.72;;;5.11;100.00
15670;BME280;18524;45.190;5.732;2024-01-15T03:58:59;98508.31;;;4.79;100.00
15670;BME280;18524;45.190;5.732;2024-01-15T04:03:49;98510.81;;;4.93;100.00
15670;BME280;18524;45.190;5.732;2024-01-15T04:08:40;98503.03;;;4.93;100.00
15670;BME280;18524;45.190;5.732;2024-01-15T04:13:33;98502.63;;;4.99;100.00
15670;BME280;18524;45.190;5.732;2024-01-15T04:18:23;98499.91;;;5.00;100.00
15670;BME280;18524;45.190;5.732;2024-01-15T04:23:14;98491.28;;;5.00;100.00
15670;BME280;18524;45.190;5.732;2024-01-15T04:28:04;98485.97;;;5.01;100.00
15670;BME280;18524;45.190;5.732;2024-01-15T04:32:55;98493.25;;;5.09;100.00
15670;BME280;18524;45.190;5.732;2024-01-15T04:37:45;98498.34;;;5.23;100.00
15670;BME280;18524;45.190;5.732;2024-01-15T04:42:36;98498.50;;;5.46;100.00
15670;BME280;18524;45.190;5.732;2024-01-15T04:47:26;98492.75;;;5.53;100.00
15670;BME280;18524;45.190;5.732;2024-01-15T04:52:16;98490.19;;;5.41;100.00
15670;BME280;18524;45.190;5.732;2024-01-15T04:57:07;98497.28;;;5.39;100.00
15670;BME280;18524;45.190;5.732;2024-01-15T05:01:57;98482.25;;;5.55;100.00
15670;BME280;18524;45.190;5.732;2024-01-15T05:06:48;98485.78;;;5.54;100.00
15670;BME280;18524;45.190;5.732;2024-01-15T05:11:38;98481.97;;;5.47;100.00
15670;BME280;18524;45.190;5.732;2024-01-15T05:16:29;98483.91;;;5.56;100.00
15670;BME280;18524;45.190;5.732;2024-01-15T05:21:19;98494.34;;;5.43;100.00
15670;BME280;18524;45.190;5.732;2024-01-15T05:26:09;98486.13;;;5.49;100.00
15670;BME280;18524;45.190;5.732;2024-01-15T05:31:00;98484.94;;;5.66;100.00
15670;BME280;18524;45.190;5.732;2024-01-15T05:35:50;98483.78;;;5.70;100.00
15670;BME280;18524;45.190;5.732;2024-01-15T05:40:41;98482.56;;;5.50;100.00
15670;BME280;18524;45.190;5.732;2024-01-15T05:45:31;98477.56;;;5.23;100.00
15670;BME280;18524;45.190;5.732;2024-01-15T05:50:22;98469.66;;;5.25;100.00
15670;BME280;18524;45.190;5.732;2024-01-15T05:55:12;98460.09;;;5.25;100.00
15670;BME280;18524;45.190;5.732;2024-01-15T06:00:03;98462.34;;;5.17;100.00
15670;BME280;18524;45.190;5.732;2024-01-15T06:04:54;98455.00;;;5.11;100.00
15670;BME280;18524;45.190;5.732;2024-01-15T06:09:44;98463.50;;;5.26;100.00
15670;BME280;18524;45.190;5.732;2024-01-15T06:14:35;98457.34;;;5.40;100.00
15670;BME280;18524;45.190;5.732;2024-01-15T06:19:25;98463.91;;;5.32;100.00
15670;BME280;18524;45.190;5.732;2024-01-15T06:24:16;98467.03;;;5.12;100.00
15670;BME280;18524;45.190;5.732;2024-01-15T06:29:08;98462.16;;;5.20;100.00
15670;BME280;18524;45.190;5.732;2024-01-15T06:33:58;98473.59;;;5.05;100.00
15670;BME280;18524;45.190;5.732;2024-01-15T06:38:48;98462.97;;;5.33;100.00
15670;BME280;18524;45.190;5.732;2024-01-15T06:43:39;98471.16;;;5.40;100.00
15670;BME280;18524;45.190;5.732;2024-01-15T06:48:29;98472.72;;;5.43;100.00
15670;BME280;18524;45.190;5.732;2024-01-15T06:53:20;98470.91;;;5.56;100.00
15670;BME280;18524;45.190;5.732;2024-01-15T06:58:10;98476.81;;;5.71;100.00
15670;BME280;18524;45.190;5.732;2024-01-15T07:03:01;98470.38;;;5.63;100.00
15670;BME280;18524;45.190;5.732;2024-01-15T07:07:51;98468.84;;;5.61;100.00
15670;BME280;18524;45.190;5.732;2024-01-15T07:12:42;98472.22;;;5.38;100.00
15670;BME280;18524;45.190;5.732;2024-01-15T07:17:33;98476.59;;;5.37;100.00
15670;BME280;18524;45.190;5.732;2024-01-15T07:22:24;98471.00;;;5.54;100.00
15670;BME280;18524;45.190;5.732;2024-01-15T07:27:14;98471.00;;;5.67;100.00
15670;BME280;18524;45.190;5.732;2024-01-15T07:32:05;98473.59;;;5.67;100.00
15670;BME280;18524;45.190;5.732;2024-01-15T07:36:57;98471.66;;;5.82;100.00
15670;BME280;18524;45.190;5.732;2024-01-15T07:41:48;98481.53;;;5.89;100.00
15670;BME280;18524;45.190;5.732;2024-01-15T07:46:38;98485.38;;;5.84;100.00
15670;BME280;18524;45.190;5.732;2024-01-15T07:51:29;98488.97;;;5.70;100.00
15670;BME280;18524;45.190;5.732;2024-01-15T07:56:19;98486.31;;;5.59;100.00
15670;BME280;18524;45.190;5.732;2024-01-15T08:01:11;98499.72;;;5.53;100.00
15670;BME280;18524;45.190;5.732;2024-01-15T08:06:01;98494.34;;;5.43;100.00
15670;BME280;18524;45.190;5.732;2024-01-15T08:10:52;98501.50;;;5.52;100.00
15670;BME280;18524;45.190;5.732;2024-01-15T08:15:43;98498.28;;;5.49;100.00
15670;BME280;18524;45.190;5.732;2024-01-15T08:20:33;98496.50;;;5.49;100.00
15670;BME280;18524;45.190;5.732;2024-01-15T08:25:24;98506.63;;;5.41;100.00
15670;BME280;18524;45.190;5.732;2024-01-15T08:30:14;98501.03;;;5.34;100.00
15670;BME280;18524;45.190;5.732;2024-01-15T08:35:05;98519.97;;;5.24;100.00
15670;BME280;18524;45.190;5.732;2024-01-15T08:39:55;98515.28;;;5.16;100.00
15670;BME280;18524;45.190;5.732;2024-01-15T08:44:45;98507.28;;;5.07;100.00
15670;BME280;18524;45.190;5.732;2024-01-15T08:49:37;98523.63;;;4.96;100.00
15670;BME280;18524;45.190;5.732;2024-01-15T08:54:27;98513.31;;;5.07;100.00
15670;BME280;18524;45.190;5.732;2024-01-15T08:59:17;98510.00;;;4.92;100.00
15670;BME280;18524;45.190;5.732;2024-01-15T09:04:14;98506.25;;;5.09;100.00
15670;BME280;18524;45.190;5.732;2024-01-15T09:09:05;98496.88;;;5.07;100.00
15670;BME280;18524;45.190;5.732;2024-01-15T09:13:56;98498.38;;;4.85;100.00
15670;BME280;18524;45.190;5.732;2024-01-15T09:18:47;98492.44;;;4.96;100.00
15670;BME280;18524;45.190;5.732;2024-01-15T09:23:38;98485.44;;;5.09;100.00
15670;BME280;18524;45.190;5.732;2024-01-15T09:28:28;98493.06;;;4.99;100.00
15670;BME280;18524;45.190;5.732;2024-01-15T09:33:18;98480.47;;;5.06;100.00
15670;BME280;18524;45.190;5.732;2024-01-15T09:38:09;98490.03;;;5.06;100.00
15670;BME280;18524;45.190;5.732;2024-01-15T09:43:00;98487.31;;;5.20;100.00
15670;BME280;18524;45.190;5.732;2024-01-15T09:47:50;98481.06;;;5.35;100.00
15670;BME280;18524;45.190;5.732;2024-01-15T09:52:42;98467.91;;;5.62;100.00
15670;BME280;18524;45.190;5.732;2024-01-15T09:57:33;98465.91;;;5.65;100.00
15670;BME280;18524;45.190;5.732;2024-01-15T10:02:23;98465.69;;;5.69;100.00
15670;BME280;18524;45.190;5.732;2024-01-15T10:07:15;98465.34;;;5.73;100.00
15670;BME280;18524;45.190;5.732;2024-01-15T10:12:10;98463.41;;;5.88;100.00
15670;BME280;18524;45.190;5.732;2024-01-15T10:17:00;98461.75;;;6.00;100.00
15670;BME280;18524;45.190;5.732;2024-01-15T10:21:59;98470.75;;;6.07;100.00
15670;BME280;18524;45.190;5.732;2024-01-15T10:26:49;98463.28;;;6.02;100.00
15670;BME280;18524;45.190;5.732;2024-01-15T10:31:39;98455.78;;;6.21;100.00
15670;BME280;18524;45.190;5.732;2024-01-15T10:36:30;98463.34;;;6.24;100.00
15670;BME280;18524;45.190;5.732;2024-01-15T10:41:20;98445.72;;;6.28;100.00
15670;BME280;18524;45.190;5.732;2024-01-15T10:46:11;98432.06;;;6.37;100.00
15670;BME280;18524;45.190;5.732;2024-01-15T10:51:03;98409.31;;;6.39;100.00
15670;BME280;18524;45.190;5.732;2024-01-15T10:56:00;98420.53;;;6.28;100.00
15670;BME280;18524;45.190;5.732;2024-01-15T11:00:51;98427.09;;;6.45;100.00
15670;BME280;18524;45.190;5.732;2024-01-15T11:05:43;98418.47;;;6.56;100.00
15670;BME280;18524;45.190;5.732;2024-01-15T11:10:47;98406.25;;;6.45;100.00
15670;BME280;18524;45.190;5.732;2024-01-15T11:16:03;98409.47;;;6.60;100.00
15670;BME280;18524;45.190;5.732;2024-01-15T11:31:19;98396.44;;;6.49;100.00
15670;BME280;18524;45.190;5.732;2024-01-15T11:36:09;98376.53;;;6.59;100.00
15670;BME280;18524;45.190;5.732;2024-01-15T11:41:15;98372.75;;;6.52;100.00
15670;BME280;18524;45.190;5.732;2024-01-15T11:46:10;98368.75;;;6.70;100.00
15670;BME280;18524;45.190;5.732;2024-01-15T11:51:02;98362.34;;;6.74;100.00
15670;BME280;18524;45.190;5.732;2024-01-15T11:55:57;98366.47;;;6.66;100.00
15670;BME280;18524;45.190;5.732;2024-01-15T12:00:50;98372.91;;;6.73;100.00
15670;BME280;18524;45.190;5.732;2024-01-15T12:05:42;98368.84;;;6.69;100.00
15670;BME280;18524;45.190;5.732;2024-01-15T12:10:32;98368.50;;;6.62;100.00
15670;BME280;18524;45.190;5.732;2024-01-15T12:15:24;98364.81;;;6.65;100.00
15670;BME280;18524;45.190;5.732;2024-01-15T12:20:15;98364.81;;;6.65;100.00
15670;BME280;18524;45.190;5.732;2024-01-15T12:25:07;98354.75;;;6.60;100.00
15670;BME280;18524;45.190;5.732;2024-01-15T12:29:58;98366.47;;;6.66;100.00
15670;BME280;18524;45.190;5.732;2024-01-15T12:34:49;98368.50;;;6.62;100.00
15670;BME280;18524;45.190;5.732;2024-01-15T12:39:43;98361.28;;;6.66;100.00
15670;BME280;18524;45.190;5.732;2024-01-15T12:44:34;98355.50;;;6.73;100.00
15670;BME280;18524;45.190;5.732;2024-01-15T12:49:26;98359.38;;;6.90;100.00
15670;BME280;18524;45.190;5.732;2024-01-15T12:54:16;98357.25;;;6.84;100.00
15670;BME280;18524;45.190;5.732;2024-01-15T12:59:06;98364.94;;;6.97;100.00
15670;BME280;18524;45.190;5.732;2024-01-15T13:03:57;98359.16;;;6.82;100.00
15670;BME280;18524;45.190;5.732;2024-01-15T13:08:47;98351.56;;;6.90;100.00
15670;BME280;18524;45.190;5.732;2024-01-15T13:13:37;98350.75;;;6.78;100.00
15670;BME280;18524;45.190;5.732;2024-01-15T13:18:28;98361.28;;;6.77;100.00
15670;BME280;18524;45.190;5.732;2024-01-15T13:23:18;98358.69;;;6.77;100.00
15670;BME280;18524;45.190;5.732;2024-01-15T13:28:10;98365.53;;;6.89;100.00
15670;BME280;18524;45.190;5.732;2024-01-15T13:33:00;98364.94;;;6.85;100.00
15670;BME280;18524;45.190;5.732;2024-01-15T13:37:54;98360.69;;;6.84;100.00
15670;BME280;18524;45.190;5.732;2024-01-15T13:42:48;98362.81;;;6.90;100.00
15670;BME280;18524;45.190;5.732;2024-01-15T13:47:38;98357.72;;;6.67;100.00
15670;BME280;18524;45.190;5.732;2024-01-15T13:52:29;98355.63;;;6.72;100.00
15670;BME280;18524;45.190;5.732;2024-01-15T13:57:19;98351.00;;;6.75;100.00
15670;BME280;18524;45.190;5.732;2024-01-15T14:02:09;98345.31;;;6.70;100.00
15670;BME280;18524;45.190;5.732;2024-01-15T14:07:00;98354.53;;;6.74;100.00
15670;BME280;18524;45.190;5.732;2024-01-15T14:11:50;98340.22;;;6.80;100.00
15670;BME280;18524;45.190;5.732;2024-01-15T14:16:42;98339.00;;;6.95;100.00
15670;BME280;18524;45.190;5.732;2024-01-15T14:21:32;98334.88;;;6.81;100.00
15670;BME280;18524;45.190;5.732;2024-01-15T14:26:23;98339.25;;;6.81;100.00
15670;BME280;18524;45.190;5.732;2024-01-15T14:31:13;98339.13;;;6.82;100.00
15670;BME280;18524;45.190;5.732;2024-01-15T14:36:04;98350.63;;;6.91;100.00
15670;BME280;18524;45.190;5.732;2024-01-15T14:40:55;98334.16;;;6.90;100.00
15670;BME280;18524;45.190;5.732;2024-01-15T14:45:45;98349.31;;;6.97;100.00
15670;BME280;18524;45.190;5.732;2024-01-15T14:50:36;98345.63;;;6.88;100.00
15670;BME280;18524;45.190;5.732;2024-01-15T14:55:27;98332.84;;;6.96;100.00
15670;BME280;18524;45.190;5.732;2024-01-15T15:00:17;98334.03;;;6.92;100.00
15670;BME280;18524;45.190;5.732;2024-01-15T15:05:09;98342.56;;;6.83;100.00
15670;BME280;18524;45.190;5.732;2024-01-15T15:10:00;98339.50;;;6.78;100.00
15670;BME280;18524;45.190;5.732;2024-01-15T15:14:50;98341.84;;;6.92;100.00
15670;BME280;18524;45.190;5.732;2024-01-15T15:19:41;98334.94;;;7.02;100.00
15670;BME280;18524;45.190;5.732;2024-01-15T15:24:31;98318.59;;;7.00;100.00
15670;BME280;18524;45.190;5.732;2024-01-15T15:29:23;98335.03;;;7.23;100.00
15670;BME280;18524;45.190;5.732;2024-01-15T15:34:14;98336.69;;;7.24;100.00
15670;BME280;18524;45.190;5.732;2024-01-15T15:39:05;98352.44;;;7.34;100.00
15670;BME280;18524;45.190;5.732;2024-01-15T15:43:56;98354.06;;;7.46;100.00
15670;BME280;18524;45.190;5.732;2024-01-15T15:48:47;98364.50;;;7.46;100.00
15670;BME280;18524;45.190;5.732;2024-01-15T15:53:37;98364.03;;;7.41;100.00
15670;BME280;18524;45.190;5.732;2024-01-15T15:58:28;98375.06;;;7.44;100.00
15670;BME280;18524;45.190;5.732;2024-01-15T16:03:18;98389.06;;;7.32;100.00
15670;BME280;18524;45.190;5.732;2024-01-15T16:08:09;98392.75;;;7.30;100.00
15670;BME280;18524;45.190;5.732;2024-01-15T16:12:59;98389.16;;;7.42;100.00
15670;BME280;18524;45.190;5.732;2024-01-15T16:17:50;98411.81;;;7.41;100.00
15670;BME280;18524;45.190;5.732;2024-01-15T16:22:41;98394.88;;;7.36;100.00
15670;BME280;18524;45.190;5.732;2024-01-15T16:27:32;98410.53;;;7.02;100.00
15670;BME280;18524;45.190;5.732;2024-01-15T16:32:23;98415.91;;;7.12;100.00
15670;BME280;18524;45.190;5.732;2024-01-15T16:37:13;98417.06;;;6.97;100.00
15670;BME280;18524;45.190;5.732;2024-01-15T16:42:03;98418.63;;;6.88;100.00
15670;BME280;18524;45.190;5.732;2024-01-15T16:46:55;98426.44;;;6.99;100.00
15670;BME280;18524;45.190;5.732;2024-01-15T16:51:49;98442.06;;;7.21;100.00
15670;BME280;18524;45.190;5.732;2024-01-15T16:56:39;98440.41;;;7.20;100.00
15670;BME280;18524;45.190;5.732;2024-01-15T17:01:30;98442.75;;;7.35;100.00
15670;BME280;18524;45.190;5.732;2024-01-15T17:06:20;98444.03;;;7.63;100.00
15670;BME280;18524;45.190;5.732;2024-01-15T17:11:11;98446.63;;;7.63;100.00
15670;BME280;18524;45.190;5.732;2024-01-15T17:16:02;98451.34;;;7.69;100.00
15670;BME280;18524;45.190;5.732;2024-01-15T17:20:53;98456.47;;;7.70;100.00
15670;BME280;18524;45.190;5.732;2024-01-15T17:25:43;98451.69;;;7.75;100.00
15670;BME280;18524;45.190;5.732;2024-01-15T17:30:34;98472.19;;;7.80;100.00
15670;BME280;18524;45.190;5.732;2024-01-15T17:35:24;98470.09;;;7.85;100.00
15670;BME280;18524;45.190;5.732;2024-01-15T17:40:14;98472.31;;;7.78;100.00
15670;BME280;18524;45.190;5.732;2024-01-15T17:45:05;98483.72;;;7.77;100.00
15670;BME280;18524;45.190;5.732;2024-01-15T17:49:56;98486.13;;;7.80;100.00
15670;BME280;18524;45.190;5.732;2024-01-15T17:54:47;98492.28;;;7.68;100.00
15670;BME280;18524;45.190;5.732;2024-01-15T17:59:38;98498.56;;;7.66;100.00
15670;BME280;18524;45.190;5.732;2024-01-15T18:04:28;98505.09;;;7.71;100.00
15670;BME280;18524;45.190;5.732;2024-01-15T18:09:18;98503.88;;;7.75;100.00
15670;BME280;18524;45.190;5.732;2024-01-15T18:14:09;98510.53;;;7.79;100.00
15670;BME280;18524;45.190;5.732;2024-01-15T18:19:00;98513.50;;;7.75;100.00
15670;BME280;18524;45.190;5.732;2024-01-15T18:23:50;98520.50;;;7.74;100.00
15670;BME280;18524;45.190;5.732;2024-01-15T18:28:41;98515.31;;;7.63;100.00
15670;BME280;18524;45.190;5.732;2024-01-15T18:33:31;98521.00;;;7.57;100.00
15670;BME280;18524;45.190;5.732;2024-01-15T18:38:24;98515.06;;;7.66;100.00
15670;BME280;18524;45.190;5.732;2024-01-15T18:43:14;98521.69;;;7.70;100.00
15670;BME280;18524;45.190;5.732;2024-01-15T18:48:05;98527.88;;;7.80;100.00
15670;BME280;18524;45.190;5.732;2024-01-15T18:52:56;98522.25;;;7.96;100.00
15670;BME280;18524;45.190;5.732;2024-01-15T18:57:47;98528.31;;;7.97;100.00
15670;BME280;18524;45.190;5.732;2024-01-15T19:02:41;98520.81;;;8.03;100.00
15670;BME280;18524;45.190;5.732;2024-01-15T19:07:32;98527.69;;;8.04;100.00
15670;BME280;18524;45.190;5.732;2024-01-15T19:12:23;98533.03;;;8.03;100.00
15670;BME280;18524;45.190;5.732;2024-01-15T19:17:13;98533.38;;;8.09;100.00
15670;BME280;18524;45.190;5.732;2024-01-15T19:22:03;98528.63;;;8.03;100.00
15670;BME280;18524;45.190;5.732;2024-01-15T19:26:54;98526.72;;;8.05;100.00
15670;BME280;18524;45.190;5.732;2024-01-15T19:31:44;98533.69;;;7.84;100.00
15670;BME280;18524;45.190;5.732;2024-01-15T19:36:35;98524.78;;;7.75;100.00
15670;BME280;18524;45.190;5.732;2024-01-15T19:41:25;98535.44;;;7.72;100.00
15670;BME280;18524;45.190;5.732;2024-01-15T19:46:16;98536.19;;;7.63;100.00
15670;BME280;18524;45.190;5.732;2024-01-15T19:51:07;98536.78;;;7.67;100.00
15670;BME280;18524;45.190;5.732;2024-01-15T19:55:57;98538.06;;;7.72;100.00
15670;BME280;18524;45.190;5.732;2024-01-15T20:00:48;98529.63;;;7.80;100.00
15670;BME280;18524;45.190;5.732;2024-01-15T20:05:38;98526.19;;;7.79;100.00
15670;BME280;18524;45.190;5.732;2024-01-15T20:10:28;98529.63;;;7.91;100.00
15670;BME280;18524;45.190;5.732;2024-01-15T20:15:19;98528.91;;;7.78;100.00
15670;BME280;18524;45.190;5.732;2024-01-15T20:20:09;98532.47;;;7.77;100.00
15670;BME280;18524;45.190;5.732;2024-01-15T20:25:00;98534.03;;;7.68;100.00
15670;BME280;18524;45.190;5.732;2024-01-15T20:29:51;98536.41;;;7.71;100.00
15670;BME280;18524;45.190;5.732;2024-01-15T20:34:41;98541.50;;;7.73;100.00
15670;BME280;18524;45.190;5.732;2024-01-15T20:39:32;98542.09;;;7.65;100.00
15670;BME280;18524;45.190;5.732;2024-01-15T20:44:22;98547.06;;;7.79;100.00
15670;BME280;18524;45.190;5.732;2024-01-15T20:49:14;98550.63;;;7.78;100.00
15670;BME280;18524;45.190;5.732;2024-01-15T20:54:04;98551.13;;;7.72;100.00
15670;BME280;18524;45.190;5.732;2024-01-15T20:58:55;98557.66;;;7.67;100.00
15670;BME280;18524;45.190;5.732;2024-01-15T21:03:45;98557.78;;;7.54;100.00
15670;BME280;18524;45.190;5.732;2024-01-15T21:08:36;98560.88;;;7.48;100.00
15670;BME280;18524;45.190;5.732;2024-01-15T21:13:26;98559.53;;;7.42;100.00
15670;BME280;18524;45.190;5.732;2024-01-15T21:18:16;98562.97;;;7.32;100.00
15670;BME280;18524;45.190;5.732;2024-01-15T21:23:07;98564.41;;;7.36;100.00
15670;BME280;18524;45.190;5.732;2024-01-15T21:27:58;98567.47;;;7.41;100.00
15670;BME280;18524;45.190;5.732;2024-01-15T21:32:49;98569.28;;;7.51;100.00
15670;BME280;18524;45.190;5.732;2024-01-15T21:37:40;98568.34;;;7.52;100.00
15670;BME280;18524;45.190;5.732;2024-01-15T21:42:30;98566.44;;;7.55;100.00
15670;BME280;18524;45.190;5.732;2024-01-15T21:47:20;98573.66;;;7.51;100.00
15670;BME280;18524;45.190;5.732;2024-01-15T21:52:12;98573.31;;;7.44;100.00
15670;BME280;18524;45.190;5.732;2024-01-15T21:57:02;98573.44;;;7.54;100.00
15670;BME280;18524;45.190;5.732;2024-01-15T22:01:53;98584.34;;;7.48;100.00
15670;BME280;18524;45.190;5.732;2024-01-15T22:06:45;98597.75;;;7.66;100.00
15670;BME280;18524;45.190;5.732;2024-01-15T22:11:35;98588.13;;;7.66;100.00
15670;BME280;18524;45.190;5.732;2024-01-15T22:16:26;98600.34;;;7.66;100.00
15670;BME280;18524;45.190;5.732;2024-01-15T22:21:16;98597.38;;;7.70;100.00
15670;BME280;18524;45.190;5.732;2024-01-15T22:26:07;98606.50;;;7.65;100.00
15670;BME280;18524;45.190;5.732;2024-01-15T22:30:57;98600.84;;;7.82;100.00
15670;BME280;18524;45.190;5.732;2024-01-15T22:35:48;98607.59;;;7.84;100.00
15670;BME280;18524;45.190;5.732;2024-01-15T22:40:38;98615.44;;;7.84;100.00
15670;BME280;18524;45.190;5.732;2024-01-15T22:45:28;98618.38;;;7.91;100.00
15670;BME280;18524;45.190;5.732;2024-01-15T22:50:19;98624.81;;;7.87;100.00
15670;BME280;18524;45.190;5.732;2024-01-15T22:55:09;98622.16;;;7.76;100.00
15670;BME280;18524;45.190;5.732;2024-01-15T23:00:00;98630.84;;;7.65;100.00
15670;BME280;18524;45.190;5.732;2024-01-15T23:04:50;98632.13;;;7.60;100.00
15670;BME280;18524;45.190;5.732;2024-01-15T23:09:41;98642.69;;;7.58;100.00
15670;BME280;18524;45.190;5.732;2024-01-15T23:14:34;98636.28;;;7.51;100.00
15670;BME280;18524;45.190;5.732;2024-01-15T23:19:24;98653.84;;;7.49;100.00
15670;BME280;18524;45.190;5.732;2024-01-15T23:24:14;98647.41;;;7.42;100.00
15670;BME280;18524;45.190;5.732;2024-01-15T23:29:05;98642.34;;;7.51;100.00
15670;BME280;18524;45.190;5.732;2024-01-15T23:33:55;98646.06;;;7.25;100.00
15670;BME280;18524;45.190;5.732;2024-01-15T23:38:46;98639.19;;;7.24;100.00
15670;BME280;18524;45.190;5.732;2024-01-15T23:43:38;98630.78;;;7.32;100.00
15670;BME280;18524;45.190;5.732;2024-01-15T23:48:28;98637.91;;;7.30;100.00
15670;BME280;18524;45.190;5.732;2024-01-15T23:53:18;98639.56;;;7.31;100.00
15670;BME280;18524;45.190;5.732;2024-01-15T23:58:09;98630.66;;;7.22;100.00
